Time;durP1;ratioP1;P1;durP2;ratioP2;P2;SDS_P1;SDS_P2;PMS_P1;PMS_P2;Temp;Humidity;BMP_temperature;BMP_pressure;BME280_temperature;BME280_humidity;BME280_pressure;Samples;Min_cycle;Max_cycle;Signal;HPM_P1;HPM_P2
2023/05/06 00:00:54;;;;;;;24.55;21.73;;;12.40;99.90;;;;;;5066733;28;20037;-65
2023/05/06 00:03:20;;;;;;;23.05;20.60;;;12.20;99.90;;;;;;5068305;28;20044;-66
2023/05/06 00:05:46;;;;;;;22.30;19.75;;;12.40;99.90;;;;;;5061268;28;20049;-66
2023/05/06 00:08:12;;;;;;;23.58;19.88;;;12.70;99.90;;;;;;5064591;28;20032;-66
2023/05/06 00:10:37;;;;;;;23.83;21.40;;;12.60;99.90;;;;;;5068350;28;20089;-66
2023/05/06 00:13:03;;;;;;;25.05;21.85;;;12.70;99.90;;;;;;5069346;28;20040;-65
2023/05/06 00:15:29;;;;;;;23.58;20.73;;;12.50;99.90;;;;;;5069334;28;20044;-66
2023/05/06 00:17:54;;;;;;;26.75;22.23;;;12.60;99.90;;;;;;5069150;28;20044;-66
2023/05/06 00:20:20;;;;;;;23.25;20.58;;;12.80;99.90;;;;;;5067913;28;20387;-66
2023/05/06 00:22:46;;;;;;;22.60;19.23;;;12.80;99.90;;;;;;5069331;28;20123;-66
2023/05/06 00:25:12;;;;;;;19.23;17.30;;;12.90;99.90;;;;;;5069463;28;20119;-65
2023/05/06 00:27:37;;;;;;;20.20;16.92;;;13.10;99.90;;;;;;5069088;28;20505;-65
2023/05/06 00:30:04;;;;;;;21.33;17.70;;;12.80;99.90;;;;;;5069296;28;20123;-66
2023/05/06 00:32:29;;;;;;;18.52;16.63;;;12.80;99.90;;;;;;5069350;28;20107;-66
2023/05/06 00:34:55;;;;;;;18.50;15.98;;;12.90;99.90;;;;;;5069247;28;20127;-66
2023/05/06 00:37:20;;;;;;;18.73;16.83;;;13.00;99.90;;;;;;5068628;28;20070;-66
2023/05/06 00:39:46;;;;;;;18.50;16.73;;;13.00;99.90;;;;;;5067835;28;20054;-66
2023/05/06 00:42:11;;;;;;;22.13;18.20;;;12.60;99.90;;;;;;5068804;28;20044;-66
2023/05/06 00:44:37;;;;;;;26.13;17.75;;;13.00;99.90;;;;;;5069225;28;20406;-66
2023/05/06 00:47:03;;;;;;;22.50;18.85;;;13.00;99.90;;;;;;5067072;28;20044;-66
2023/05/06 00:49:29;;;;;;;21.00;18.80;;;13.20;99.90;;;;;;5069006;28;20036;-66
2023/05/06 00:51:56;;;;;;;18.88;16.92;;;13.20;99.90;;;;;;5068124;28;20571;-66
2023/05/06 00:54:25;;;;;;;17.63;15.65;;;12.90;99.90;;;;;;5067485;28;20047;-66
2023/05/06 00:56:50;;;;;;;18.38;15.73;;;13.20;99.90;;;;;;5068960;28;20040;-66
2023/05/06 00:59:16;;;;;;;17.90;15.93;;;13.10;99.90;;;;;;5072104;28;20047;-66
2023/05/06 01:01:42;;;;;;;18.75;16.67;;;13.00;99.90;;;;;;5073063;28;20044;-66
2023/05/06 01:04:08;;;;;;;19.80;17.73;;;12.90;99.90;;;;;;5071397;28;20508;-65
2023/05/06 01:07:15;;;;;;;18.27;16.35;;;13.00;99.90;;;;;;5072446;28;20033;-66
2023/05/06 01:09:50;;;;;;;18.63;16.70;;;12.80;99.90;;;;;;5071731;28;20056;-65
2023/05/06 01:12:29;;;;;;;19.98;17.88;;;13.10;99.90;;;;;;5072794;28;20112;-66
2023/05/06 01:15:12;;;;;;;18.98;16.30;;;12.80;99.90;;;;;;5072215;28;20120;-66
2023/05/06 01:17:43;;;;;;;17.98;16.15;;;12.70;99.90;;;;;;5072536;28;20059;-66
2023/05/06 01:20:10;;;;;;;17.52;14.98;;;13.10;99.90;;;;;;5072383;28;20570;-65
2023/05/06 01:22:37;;;;;;;19.33;15.13;;;12.70;99.90;;;;;;5072435;28;20071;-65
2023/05/06 01:25:04;;;;;;;16.00;14.20;;;13.10;99.90;;;;;;5071074;28;20044;-65
2023/05/06 01:27:29;;;;;;;16.42;14.70;;;12.70;99.90;;;;;;5071970;28;20090;-66
2023/05/06 01:29:56;;;;;;;16.42;14.73;;;12.80;99.90;;;;;;5072062;28;20050;-65
2023/05/06 01:32:44;;;;;;;19.95;14.65;;;13.00;99.90;;;;;;5072580;28;20044;-65
2023/05/06 01:35:33;;;;;;;20.00;18.08;;;13.10;99.90;;;;;;5061891;28;20049;-66
2023/05/06 01:38:26;;;;;;;18.50;16.33;;;13.00;99.90;;;;;;5069925;28;20061;-66
2023/05/06 01:40:55;;;;;;;18.63;16.73;;;13.00;99.90;;;;;;5071704;28;20044;-66
2023/05/06 01:43:23;;;;;;;17.30;15.35;;;12.90;99.90;;;;;;5072044;28;20510;-66
2023/05/06 01:45:53;;;;;;;412.20;106.78;;;12.90;99.90;;;;;;5070305;28;20048;-66
2023/05/06 01:48:27;;;;;;;18.15;16.35;;;12.90;99.90;;;;;;5070612;28;20117;-66
2023/05/06 01:50:53;;;;;;;18.05;16.08;;;12.90;99.90;;;;;;5072188;28;20051;-65
2023/05/06 01:53:18;;;;;;;18.25;16.42;;;12.50;99.90;;;;;;5072185;28;20048;-66
2023/05/06 01:55:44;;;;;;;21.80;19.50;;;12.90;99.90;;;;;;5071961;28;20048;-66
2023/05/06 01:58:10;;;;;;;20.50;18.48;;;12.70;99.90;;;;;;5071134;28;20040;-66
2023/05/06 02:00:37;;;;;;;18.55;16.67;;;12.90;99.90;;;;;;5071153;28;20543;-66
2023/05/06 02:03:02;;;;;;;23.25;18.77;;;13.00;99.90;;;;;;5071616;28;20482;-66
2023/05/06 02:05:28;;;;;;;20.40;17.95;;;13.00;99.90;;;;;;5071399;28;20040;-66
2023/05/06 02:07:53;;;;;;;20.55;16.58;;;12.60;99.90;;;;;;5072105;28;20151;-66
2023/05/06 02:10:19;;;;;;;18.25;16.38;;;12.70;99.90;;;;;;5071338;28;20054;-66
2023/05/06 02:12:45;;;;;;;21.95;17.55;;;12.80;99.90;;;;;;5071107;28;20477;-66
2023/05/06 02:15:10;;;;;;;23.55;18.13;;;13.10;99.90;;;;;;5071731;28;20040;-66
2023/05/06 02:17:37;;;;;;;21.15;17.50;;;13.10;99.90;;;;;;5071697;28;20147;-66
2023/05/06 02:20:03;;;;;;;22.67;16.77;;;12.70;99.90;;;;;;5066747;28;20033;-66
2023/05/06 02:22:28;;;;;;;23.50;17.88;;;13.10;99.90;;;;;;5067015;28;20048;-66
2023/05/06 02:24:54;;;;;;;21.13;17.85;;;12.70;99.90;;;;;;5058202;28;20033;-66
2023/05/06 02:27:19;;;;;;;24.23;17.92;;;12.80;99.90;;;;;;5070498;28;20078;-66
2023/05/06 02:29:45;;;;;;;21.63;18.67;;;13.20;99.90;;;;;;5071531;28;20036;-66
2023/05/06 02:32:11;;;;;;;19.08;17.10;;;12.80;99.90;;;;;;5071039;28;20524;-65
2023/05/06 02:34:36;;;;;;;19.65;17.48;;;13.20;99.90;;;;;;5069606;28;20050;-66
2023/05/06 02:37:02;;;;;;;18.50;16.55;;;12.70;99.90;;;;;;5069664;28;20494;-66
2023/05/06 02:39:27;;;;;;;19.30;17.33;;;12.80;99.90;;;;;;5071014;28;20123;-66
2023/05/06 02:41:53;;;;;;;18.00;16.00;;;12.70;99.90;;;;;;5070482;28;20044;-65
2023/05/06 02:44:19;;;;;;;20.33;17.33;;;13.00;99.90;;;;;;5070890;28;20039;-66
2023/05/06 02:46:44;;;;;;;18.30;16.27;;;12.70;99.90;;;;;;5069496;28;20052;-66
2023/05/06 02:49:10;;;;;;;20.17;17.77;;;12.70;99.90;;;;;;5070746;28;20036;-66
2023/05/06 02:51:35;;;;;;;20.95;18.65;;;13.00;99.90;;;;;;5070852;28;20067;-66
2023/05/06 02:54:01;;;;;;;17.05;15.05;;;12.70;99.90;;;;;;5070748;28;20386;-65
2023/05/06 02:56:26;;;;;;;25.50;20.30;;;13.20;99.90;;;;;;5070194;28;20041;-66
2023/05/06 02:58:52;;;;;;;21.27;17.17;;;13.20;99.90;;;;;;5070928;28;20040;-66
2023/05/06 03:01:18;;;;;;;22.35;17.77;;;13.30;99.90;;;;;;5070819;28;20124;-66
2023/05/06 03:03:45;;;;;;;21.90;16.77;;;13.30;99.90;;;;;;5070168;28;20448;-66
2023/05/06 03:06:10;;;;;;;16.67;14.35;;;12.90;99.90;;;;;;5070734;28;20070;-66
2023/05/06 03:08:36;;;;;;;20.55;17.00;;;13.90;99.90;;;;;;5069665;28;20056;-66
2023/05/06 03:11:01;;;;;;;1999.90;999.90;;;13.50;99.90;;;;;;5069949;28;20048;-66
2023/05/06 03:13:27;;;;;;;20.05;16.98;;;12.80;99.90;;;;;;5064715;28;20037;-66
2023/05/06 03:15:53;;;;;;;16.45;14.30;;;13.00;99.90;;;;;;5067212;28;20123;-66
2023/05/06 03:18:19;;;;;;;16.33;13.68;;;12.80;99.90;;;;;;5070210;28;20078;-66
2023/05/06 03:20:46;;;;;;;18.88;14.18;;;13.50;99.90;;;;;;5069387;28;20048;-66
2023/05/06 03:23:11;;;;;;;17.83;14.20;;;13.30;99.90;;;;;;5067871;28;20102;-67
2023/05/06 03:25:37;;;;;;;18.35;15.43;;;13.30;99.90;;;;;;5068531;28;20536;-67
2023/05/06 03:28:03;;;;;;;1999.90;999.90;;;13.70;99.90;;;;;;5068650;28;20125;-67
2023/05/06 03:30:28;;;;;;;1657.10;296.90;;;13.40;99.90;;;;;;5068754;28;20347;-66
2023/05/06 03:32:55;;;;;;;22.77;17.38;;;13.30;99.90;;;;;;5068507;28;20429;-67
2023/05/06 03:35:21;;;;;;;155.65;34.67;;;12.80;99.90;;;;;;5068224;28;20091;-67
2023/05/06 03:37:46;;;;;;;29.02;20.08;;;13.20;99.90;;;;;;5068027;28;20064;-67
2023/05/06 03:40:12;;;;;;;1999.90;999.90;;;13.10;99.90;;;;;;5068293;28;20498;-67
2023/05/06 03:42:38;;;;;;;24.33;17.58;;;13.10;99.90;;;;;;5068230;28;20449;-66
2023/05/06 03:45:05;;;;;;;26.33;18.27;;;12.90;99.90;;;;;;5068475;28;20482;-66
2023/05/06 03:47:30;;;;;;;23.23;16.02;;;13.10;99.90;;;;;;5068760;28;20562;-67
2023/05/06 03:49:56;;;;;;;25.02;18.02;;;13.80;99.90;;;;;;5068754;28;20142;-66
2023/05/06 03:52:22;;;;;;;27.13;17.38;;;13.20;99.90;;;;;;5069776;28;20049;-66
2023/05/06 03:54:48;;;;;;;18.75;10.32;;;13.80;99.90;;;;;;5047543;28;20048;-66
2023/05/06 03:57:13;;;;;;;27.73;20.48;;;13.80;99.90;;;;;;5057372;28;20055;-66
2023/05/06 03:59:39;;;;;;;26.80;18.92;;;12.60;99.90;;;;;;5068359;28;20044;-66
2023/05/06 04:02:05;;;;;;;23.73;15.20;;;13.00;99.90;;;;;;5069082;28;20040;-66
2023/05/06 04:04:30;;;;;;;27.55;19.15;;;13.80;99.90;;;;;;5067616;28;20040;-66
2023/05/06 04:06:56;;;;;;;14.02;8.80;;;12.90;99.90;;;;;;5068147;28;20048;-66
2023/05/06 04:09:21;;;;;;;12.00;8.50;;;13.10;99.90;;;;;;5069651;28;20072;-66
2023/05/06 04:11:47;;;;;;;11.70;8.98;;;12.80;99.90;;;;;;5085295;28;20045;-66
2023/05/06 04:14:13;;;;;;;16.52;10.35;;;12.40;99.90;;;;;;5084899;28;20078;-66
2023/05/06 04:16:38;;;;;;;18.55;10.27;;;13.00;99.90;;;;;;5068143;28;20131;-66
2023/05/06 04:19:04;;;;;;;14.93;9.32;;;13.50;99.90;;;;;;5064550;28;20075;-66
2023/05/06 04:21:30;;;;;;;12.52;8.43;;;12.40;99.90;;;;;;5060932;28;20053;-66
2023/05/06 04:23:55;;;;;;;22.45;17.52;;;13.30;99.90;;;;;;5056325;28;20040;-66
2023/05/06 04:26:21;;;;;;;24.48;17.48;;;12.20;99.90;;;;;;5067214;28;20128;-66
2023/05/06 04:28:47;;;;;;;24.70;18.52;;;12.90;99.90;;;;;;5068242;28;20402;-66
2023/05/06 04:31:13;;;;;;;22.42;16.45;;;13.40;99.90;;;;;;5068008;28;20043;-66
2023/05/06 04:33:40;;;;;;;21.83;17.98;;;13.40;99.90;;;;;;5070360;28;20033;-66
2023/05/06 04:36:06;;;;;;;27.77;18.40;;;13.40;99.90;;;;;;5072352;28;20510;-66
2023/05/06 04:38:31;;;;;;;24.40;17.83;;;12.20;99.90;;;;;;5073295;28;20059;-66
2023/05/06 04:40:58;;;;;;;20.70;16.77;;;12.40;99.90;;;;;;5072973;28;20044;-66
2023/05/06 04:43:26;;;;;;;19.48;16.17;;;13.40;99.90;;;;;;5071957;28;20037;-66
2023/05/06 04:45:53;;;;;;;24.05;17.33;;;12.90;99.90;;;;;;5073305;28;20392;-66
2023/05/06 04:48:21;;;;;;;22.80;17.20;;;13.00;99.90;;;;;;5071599;28;20351;-66
2023/05/06 04:50:47;;;;;;;21.45;17.05;;;13.20;99.90;;;;;;5073257;28;20063;-66
2023/05/06 04:53:13;;;;;;;23.13;16.77;;;13.20;99.90;;;;;;5071378;28;20486;-66
2023/05/06 04:55:39;;;;;;;22.27;17.08;;;12.60;99.90;;;;;;5071156;28;20044;-66
2023/05/06 04:58:04;;;;;;;23.90;18.00;;;13.80;99.90;;;;;;5073245;28;20040;-66
2023/05/06 05:00:30;;;;;;;23.98;18.92;;;12.70;99.90;;;;;;5073232;28;20102;-66
2023/05/06 05:02:56;;;;;;;22.20;17.65;;;13.90;99.90;;;;;;5068095;28;20037;-66
2023/05/06 05:05:23;;;;;;;21.33;18.23;;;12.90;99.90;;;;;;5061753;28;20350;-66
2023/05/06 05:07:49;;;;;;;21.88;17.58;;;13.40;99.90;;;;;;5073353;28;20032;-66
2023/05/06 05:10:15;;;;;;;23.35;18.08;;;13.40;99.90;;;;;;5071867;28;20085;-66
2023/05/06 05:12:40;;;;;;;29.75;20.58;;;12.50;99.90;;;;;;5071771;28;20044;-66
2023/05/06 05:15:06;;;;;;;23.80;19.33;;;13.70;99.90;;;;;;5072884;28;20036;-66
2023/05/06 05:17:32;;;;;;;24.80;20.30;;;12.60;99.90;;;;;;5072345;28;20040;-66
2023/05/06 05:19:57;;;;;;;29.55;22.20;;;12.80;99.90;;;;;;5072454;28;20072;-66
2023/05/06 05:22:23;;;;;;;30.63;22.75;;;12.90;99.90;;;;;;5071233;28;20044;-66
2023/05/06 05:24:48;;;;;;;30.25;21.95;;;12.80;99.90;;;;;;5070457;28;20131;-66
2023/05/06 05:27:14;;;;;;;27.67;22.25;;;12.90;99.90;;;;;;5070819;28;20036;-66
2023/05/06 05:29:39;;;;;;;30.33;21.83;;;13.00;99.90;;;;;;5072319;28;20040;-66
2023/05/06 05:32:05;;;;;;;26.10;19.95;;;13.00;99.90;;;;;;5070915;28;20044;-66
2023/05/06 05:34:31;;;;;;;26.73;20.13;;;14.40;99.90;;;;;;5070333;28;20051;-66
2023/05/06 05:36:57;;;;;;;24.40;19.98;;;13.30;99.90;;;;;;5071002;28;20040;-66
2023/05/06 05:39:22;;;;;;;25.20;19.67;;;14.40;99.90;;;;;;5071105;28;20063;-66
2023/05/06 05:41:48;;;;;;;25.48;19.40;;;13.80;99.90;;;;;;5070601;28;20044;-66
2023/05/06 05:44:14;;;;;;;24.75;19.77;;;14.20;99.90;;;;;;5070561;28;20396;-66
2023/05/06 05:46:40;;;;;;;24.60;18.95;;;13.20;99.90;;;;;;5070342;28;20071;-66
2023/05/06 05:49:05;;;;;;;23.90;19.20;;;13.40;99.90;;;;;;5053996;28;20036;-66
2023/05/06 05:51:31;;;;;;;23.90;19.90;;;14.10;99.90;;;;;;5070551;28;22201;-66
2023/05/06 05:53:57;;;;;;;24.17;19.98;;;14.00;99.90;;;;;;5071684;28;20098;-66
2023/05/06 05:56:22;;;;;;;25.38;19.23;;;14.20;99.90;;;;;;5069724;28;20051;-66
2023/05/06 05:58:48;;;;;;;23.95;19.10;;;14.30;99.90;;;;;;5071914;28;20044;-66
2023/05/06 06:01:13;;;;;;;24.25;19.73;;;13.60;99.90;;;;;;5070692;28;20139;-66
2023/05/06 06:03:40;;;;;;;23.60;19.42;;;14.00;99.90;;;;;;5066814;28;20071;-66
2023/05/06 06:06:05;;;;;;;23.52;19.80;;;13.90;99.90;;;;;;5063288;28;20387;-67
2023/05/06 06:08:32;;;;;;;24.55;19.55;;;14.00;99.90;;;;;;5067955;28;20041;-66
2023/05/06 06:10:57;;;;;;;24.35;19.70;;;14.50;99.90;;;;;;5067260;28;20036;-66
2023/05/06 06:13:23;;;;;;;27.58;20.65;;;14.90;99.90;;;;;;5066889;28;20044;-66
2023/05/06 06:15:49;;;;;;;23.70;20.25;;;14.10;99.90;;;;;;5064817;28;20032;-66
2023/05/06 06:18:15;;;;;;;24.88;20.10;;;14.10;99.90;;;;;;5069695;28;20032;-66
2023/05/06 06:20:40;;;;;;;27.83;19.88;;;14.90;99.90;;;;;;5069388;28;20048;-66
2023/05/06 06:23:06;;;;;;;23.63;19.20;;;15.30;99.90;;;;;;5068694;28;20174;-66
2023/05/06 06:25:31;;;;;;;21.65;18.85;;;15.40;99.90;;;;;;5066215;28;20082;-66
2023/05/06 06:27:57;;;;;;;23.52;18.73;;;15.00;99.90;;;;;;5069904;28;20134;-66
2023/05/06 06:30:23;;;;;;;23.65;18.25;;;14.70;99.90;;;;;;5070022;28;20410;-66
2023/05/06 06:32:50;;;;;;;22.08;17.90;;;15.10;99.90;;;;;;5064958;28;20115;-66
2023/05/06 06:35:16;;;;;;;21.45;17.85;;;15.80;99.90;;;;;;5066976;28;20101;-66
2023/05/06 06:37:42;;;;;;;21.25;17.80;;;15.10;99.90;;;;;;5068568;28;20122;-66
2023/05/06 06:40:09;;;;;;;23.45;18.38;;;15.90;99.90;;;;;;5084474;28;20040;-66
2023/05/06 06:42:35;;;;;;;22.38;18.42;;;15.50;99.90;;;;;;5067093;28;20036;-66
2023/05/06 06:45:01;;;;;;;22.40;18.20;;;16.00;99.90;;;;;;5069119;28;20120;-66
2023/05/06 06:47:26;;;;;;;22.35;17.70;;;16.00;99.90;;;;;;5067282;28;20124;-66
2023/05/06 06:49:52;;;;;;;23.10;18.45;;;15.50;99.90;;;;;;5067931;28;20036;-66
2023/05/06 06:52:17;;;;;;;22.95;18.77;;;16.10;99.90;;;;;;5066083;28;20418;-66
2023/05/06 06:54:43;;;;;;;22.52;17.95;;;15.80;99.90;;;;;;5050702;28;20462;-67
2023/05/06 06:57:08;;;;;;;21.45;17.90;;;16.00;99.90;;;;;;5065489;28;20255;-66
2023/05/06 06:59:34;;;;;;;20.70;18.38;;;16.20;99.90;;;;;;5067449;28;20090;-66
2023/05/06 07:02:01;;;;;;;21.88;18.35;;;16.60;99.90;;;;;;5068232;28;20068;-67
2023/05/06 07:04:27;;;;;;;23.88;19.05;;;16.70;99.90;;;;;;5067817;28;20127;-66
2023/05/06 07:06:52;;;;;;;22.45;18.58;;;16.50;99.90;;;;;;5066920;28;20123;-66
2023/05/06 07:09:18;;;;;;;24.65;19.15;;;17.00;99.90;;;;;;5067063;28;20496;-67
2023/05/06 07:11:44;;;;;;;19.92;17.83;;;17.30;99.90;;;;;;5062672;28;20083;-67
2023/05/06 07:14:10;;;;;;;20.50;17.67;;;17.20;99.90;;;;;;5061397;28;20049;-66
2023/05/06 07:16:36;;;;;;;20.85;18.08;;;17.60;99.90;;;;;;5066161;28;20144;-66
2023/05/06 07:19:01;;;;;;;21.63;18.83;;;17.60;99.90;;;;;;5067237;28;20413;-66
2023/05/06 07:21:27;;;;;;;20.95;18.75;;;18.20;99.90;;;;;;5064628;28;20048;-66
2023/05/06 07:23:53;;;;;;;20.92;18.30;;;18.00;99.90;;;;;;5067151;28;20434;-66
2023/05/06 07:26:20;;;;;;;21.65;18.90;;;18.20;99.90;;;;;;5067794;28;20044;-67
2023/05/06 07:28:45;;;;;;;20.85;17.85;;;18.20;99.90;;;;;;5068318;28;20132;-67
2023/05/06 07:31:11;;;;;;;21.75;17.98;;;18.40;99.90;;;;;;5066931;28;20125;-67
2023/05/06 07:33:37;;;;;;;21.70;19.00;;;18.70;99.90;;;;;;5065961;28;20055;-66
2023/05/06 07:36:02;;;;;;;677.65;110.47;;;18.80;99.90;;;;;;5069758;28;20040;-66
2023/05/06 07:38:28;;;;;;;20.50;18.30;;;18.90;99.90;;;;;;5068479;28;20056;-67
2023/05/06 07:40:54;;;;;;;22.55;19.80;;;19.00;99.90;;;;;;5065770;28;20045;-66
2023/05/06 07:43:21;;;;;;;25.88;20.42;;;19.20;99.90;;;;;;5066896;28;20041;-67
2023/05/06 07:45:48;;;;;;;24.45;21.13;;;19.30;99.90;;;;;;5063491;28;20414;-68
2023/05/06 07:48:13;;;;;;;25.42;22.45;;;19.60;99.90;;;;;;5067428;28;20119;-67
2023/05/06 07:50:39;;;;;;;31.70;24.10;;;19.70;99.90;;;;;;5066350;28;20079;-66
2023/05/06 07:53:05;;;;;;;28.65;24.35;;;19.70;99.90;;;;;;5039111;28;20050;-67
2023/05/06 07:55:30;;;;;;;29.48;25.75;;;19.60;99.90;;;;;;5066151;28;20044;-66
2023/05/06 07:57:56;;;;;;;26.17;23.35;;;19.60;99.90;;;;;;5065299;28;20052;-65
2023/05/06 08:00:21;;;;;;;28.10;22.95;;;19.80;99.90;;;;;;5063585;28;20086;-64
2023/05/06 08:02:47;;;;;;;30.05;23.90;;;19.90;99.90;;;;;;5067767;28;20131;-67
2023/05/06 08:05:13;;;;;;;27.30;24.13;;;20.30;99.90;;;;;;5064974;28;20480;-67
2023/05/06 08:07:40;;;;;;;27.92;24.92;;;20.70;99.90;;;;;;5067779;28;20043;-67
2023/05/06 08:10:07;;;;;;;35.88;32.00;;;21.00;99.90;;;;;;5064500;28;20037;-67
2023/05/06 08:12:34;;;;;;;31.30;27.92;;;21.10;99.90;;;;;;5062835;28;20044;-67
2023/05/06 08:15:01;;;;;;;33.05;28.85;;;21.00;99.90;;;;;;5064642;28;20679;-66
2023/05/06 08:17:26;;;;;;;32.28;28.70;;;20.50;99.90;;;;;;5062776;28;20067;-66
2023/05/06 08:19:52;;;;;;;35.90;29.80;;;20.40;99.90;;;;;;5063923;28;20040;-67
2023/05/06 08:22:17;;;;;;;31.75;28.35;;;20.20;99.90;;;;;;5066372;28;20040;-67
2023/05/06 08:24:43;;;;;;;36.10;31.70;;;20.00;99.90;;;;;;5062607;28;20037;-67
2023/05/06 08:27:09;;;;;;;38.65;34.38;;;19.90;99.90;;;;;;5065978;28;20900;-67
2023/05/06 08:29:34;;;;;;;38.00;33.30;;;20.10;99.90;;;;;;5065204;28;20039;-67
2023/05/06 08:32:00;;;;;;;38.50;34.38;;;20.00;99.90;;;;;;5064134;28;20037;-67
2023/05/06 08:34:26;;;;;;;43.03;36.75;;;19.90;99.90;;;;;;5066076;28;20588;-65
2023/05/06 08:36:52;;;;;;;37.25;32.55;;;20.10;99.90;;;;;;5066659;28;20059;-65
2023/05/06 08:39:17;;;;;;;37.08;30.27;;;20.10;99.90;;;;;;5064657;28;20049;-66
2023/05/06 08:41:52;;;;;;;36.33;31.05;;;20.00;99.90;;;;;;5068852;28;20079;-67
2023/05/06 08:44:22;;;;;;;35.33;30.02;;;20.10;99.90;;;;;;5064832;28;20072;-66
2023/05/06 08:46:47;;;;;;;33.35;29.80;;;20.20;99.90;;;;;;5066719;28;20066;-67
2023/05/06 08:49:13;;;;;;;34.63;30.83;;;20.30;99.90;;;;;;5047831;28;20040;-67
2023/05/06 08:51:42;;;;;;;38.55;33.25;;;19.60;99.90;;;;;;5067422;28;20044;-67
2023/05/06 08:54:10;;;;;;;35.95;32.08;;;19.80;99.90;;;;;;5068744;28;20482;-67
2023/05/06 08:56:37;;;;;;;33.78;30.17;;;20.10;99.90;;;;;;5067990;28;20295;-67
2023/05/06 08:59:05;;;;;;;34.40;30.70;;;20.30;99.90;;;;;;5064729;28;20564;-67
2023/05/06 09:01:31;;;;;;;34.85;31.17;;;20.60;99.90;;;;;;5065440;28;20128;-67
2023/05/06 09:03:58;;;;;;;36.28;31.85;;;21.20;99.90;;;;;;5065565;28;20111;-67
2023/05/06 09:06:24;;;;;;;36.30;32.35;;;21.50;99.90;;;;;;5062384;28;20045;-67
2023/05/06 09:08:49;;;;;;;39.42;32.80;;;21.70;99.90;;;;;;5063811;28;20052;-64
2023/05/06 09:11:20;;;;;;;34.50;30.80;;;21.50;99.90;;;;;;5067008;28;20036;-64
2023/05/06 09:13:45;;;;;;;37.03;31.08;;;22.10;99.90;;;;;;5040645;28;20044;-65
2023/05/06 09:16:27;;;;;;;35.67;31.20;;;21.60;99.90;;;;;;5063584;28;20482;-64
2023/05/06 09:18:52;;;;;;;35.45;31.23;;;21.70;99.90;;;;;;5066086;28;20060;-64
2023/05/06 09:21:18;;;;;;;34.55;29.23;;;21.60;1.00;;;;;;5071885;28;20064;-64
2023/05/06 09:23:44;;;;;;;32.55;28.95;;;21.70;68.90;;;;;;5070211;28;20033;-65
2023/05/06 09:26:10;;;;;;;31.33;26.42;;;22.00;1.00;;;;;;5068774;28;20086;-63
2023/05/06 09:28:35;;;;;;;30.70;26.75;;;21.80;1.00;;;;;;5067539;28;20102;-64
2023/05/06 09:31:01;;;;;;;29.40;26.30;;;21.80;99.90;;;;;;5067963;28;20438;-64
2023/05/06 09:33:26;;;;;;;28.13;25.15;;;22.00;99.90;;;;;;5056088;28;20402;-65
2023/05/06 09:35:52;;;;;;;36.70;28.65;;;22.00;1.00;;;;;;5069798;28;20048;-65
2023/05/06 09:38:18;;;;;;;31.17;27.88;;;22.10;30.50;;;;;;5066666;28;20060;-64
2023/05/06 09:40:43;;;;;;;29.20;26.20;;;21.30;99.90;;;;;;5069577;28;20041;-67
2023/05/06 09:43:09;;;;;;;31.83;25.88;;;21.60;1.00;;;;;;5067242;28;20177;-67
2023/05/06 09:45:35;;;;;;;29.50;26.38;;;21.60;1.00;;;;;;5063955;28;20513;-67
2023/05/06 09:48:01;;;;;;;32.80;28.75;;;21.50;99.90;;;;;;5068355;28;20032;-67
2023/05/06 09:50:26;;;;;;;31.10;27.15;;;21.70;99.90;;;;;;5069406;28;20611;-68
2023/05/06 09:52:54;;;;;;;32.53;28.88;;;22.30;99.90;;;;;;5064959;28;20406;-67
2023/05/06 09:55:22;;;;;;;30.48;27.15;;;22.20;99.90;;;;;;5066125;28;20044;-67
2023/05/06 09:57:48;;;;;;;30.65;27.35;;;21.80;99.90;;;;;;5070751;28;20036;-67
2023/05/06 10:00:15;;;;;;;31.98;27.95;;;21.70;1.00;;;;;;5069299;28;20048;-67
2023/05/06 10:02:43;;;;;;;30.52;27.23;;;21.50;99.90;;;;;;5071469;28;20123;-67
2023/05/06 10:05:10;;;;;;;30.52;26.55;;;21.40;1.00;;;;;;5059892;28;20037;-67
2023/05/06 10:07:35;;;;;;;29.15;26.02;;;21.50;15.90;;;;;;5083065;28;20543;-67
2023/05/06 10:10:05;;;;;;;33.55;25.55;;;21.60;99.90;;;;;;5045643;28;20143;-69
2023/05/06 10:12:31;;;;;;;33.38;26.52;;;21.70;99.90;;;;;;5067727;28;20036;-70
2023/05/06 10:14:57;;;;;;;29.48;26.25;;;21.60;99.90;;;;;;5069849;28;20047;-70
2023/05/06 10:17:24;;;;;;;30.38;25.70;;;21.80;99.90;;;;;;5069700;28;20040;-70
2023/05/06 10:19:54;;;;;;;31.00;25.38;;;21.60;99.90;;;;;;5063655;28;20040;-70
2023/05/06 10:22:44;;;;;;;30.52;26.23;;;21.70;99.90;;;;;;5050275;28;20760;-70
2023/05/06 10:25:29;;;;;;;30.38;27.23;;;21.20;1.00;;;;;;5050556;28;20168;-70
2023/05/06 10:27:55;;;;;;;29.35;26.23;;;21.30;1.00;;;;;;5062286;28;20036;-70
2023/05/06 10:30:21;;;;;;;36.35;26.95;;;21.40;99.90;;;;;;5068312;28;20040;-70
2023/05/06 10:32:47;;;;;;;32.10;27.65;;;21.30;30.30;;;;;;5069811;28;20040;-70
2023/05/06 10:35:13;;;;;;;36.03;27.25;;;21.40;99.90;;;;;;5069343;28;20377;-70
2023/05/06 10:37:40;;;;;;;31.23;26.52;;;21.40;99.90;;;;;;5068557;28;20076;-70
2023/05/06 10:40:08;;;;;;;30.90;26.02;;;21.70;99.90;;;;;;5069871;28;20558;-70
2023/05/06 10:42:34;;;;;;;30.23;27.02;;;21.40;5.90;;;;;;5065834;28;20032;-68
2023/05/06 10:45:02;;;;;;;33.05;28.65;;;21.70;13.20;;;;;;5067219;28;20029;-69
2023/05/06 10:47:48;;;;;;;32.50;26.23;;;21.50;1.00;;;;;;5064705;28;20029;-69
2023/05/06 10:50:21;;;;;;;28.95;25.42;;;21.70;1.00;;;;;;5058376;28;20486;-69
2023/05/06 10:52:51;;;;;;;30.30;25.58;;;21.80;99.90;;;;;;5067693;28;20055;-69
2023/05/06 10:55:30;;;;;;;30.63;26.92;;;22.00;99.90;;;;;;5066147;28;20063;-69
2023/05/06 10:58:09;;;;;;;33.13;28.42;;;22.10;99.90;;;;;;5051088;28;20164;-69
2023/05/06 11:00:35;;;;;;;32.58;26.88;;;22.00;60.20;;;;;;5066466;28;20097;-69
2023/05/06 11:03:05;;;;;;;30.50;25.95;;;22.30;1.00;;;;;;5069254;28;20041;-69
2023/05/06 11:05:30;;;;;;;32.63;29.17;;;22.10;99.90;;;;;;5066939;28;20039;-69
2023/05/06 11:08:08;;;;;;;30.98;25.00;;;22.10;99.90;;;;;;5064637;28;20119;-69
2023/05/06 11:10:35;;;;;;;26.23;21.42;;;22.10;99.90;;;;;;5060341;28;20103;-69
2023/05/06 11:13:27;;;;;;;26.88;23.38;;;22.00;99.90;;;;;;5084056;28;20448;-69
2023/05/06 11:15:57;;;;;;;26.33;23.15;;;22.30;82.10;;;;;;5061671;28;20578;-69
2023/05/06 11:18:30;;;;;;;26.27;20.63;;;22.00;56.00;;;;;;5068317;28;20040;-69
2023/05/06 11:20:59;;;;;;;23.95;20.75;;;22.00;1.00;;;;;;5067751;28;20132;-69
2023/05/06 11:23:53;;;;;;;27.30;22.17;;;21.90;1.00;;;;;;5066301;28;20525;-69
2023/05/06 11:26:19;;;;;;;26.75;21.55;;;21.90;1.00;;;;;;5062729;28;20028;-69
2023/05/06 11:28:46;;;;;;;26.27;21.73;;;22.10;1.00;;;;;;5065354;28;20074;-69
2023/05/06 11:31:13;;;;;;;24.67;20.45;;;22.10;1.00;;;;;;5064458;28;20078;-69
2023/05/06 11:33:48;;;;;;;22.08;18.30;;;22.30;1.00;;;;;;5065272;28;20103;-69
2023/05/06 11:36:16;;;;;;;22.88;17.40;;;22.30;1.00;;;;;;5064332;28;20056;-69
2023/05/06 11:38:42;;;;;;;21.02;15.77;;;22.20;1.00;;;;;;5066623;28;20117;-69
2023/05/06 11:41:07;;;;;;;21.95;16.98;;;22.40;99.90;;;;;;5065239;28;20119;-69
2023/05/06 11:43:33;;;;;;;22.20;14.60;;;22.20;99.90;;;;;;5063471;28;20130;-69
2023/05/06 11:45:59;;;;;;;20.25;15.00;;;22.20;99.90;;;;;;5064729;28;20044;-69
2023/05/06 11:48:24;;;;;;;23.25;14.95;;;22.30;99.90;;;;;;5067528;28;20044;-69
2023/05/06 11:50:50;;;;;;;22.08;15.90;;;22.20;99.90;;;;;;5064071;28;20398;-69
2023/05/06 11:53:21;;;;;;;23.13;15.55;;;22.30;54.60;;;;;;5083752;28;20036;-69
2023/05/06 11:55:47;;;;;;;23.60;17.73;;;22.20;37.30;;;;;;5066468;28;20049;-69
2023/05/06 11:58:20;;;;;;;23.13;17.52;;;22.10;49.80;;;;;;5063209;28;20032;-69
2023/05/06 12:00:51;;;;;;;23.63;17.13;;;22.20;66.50;;;;;;5052108;28;20084;-69
2023/05/06 12:03:21;;;;;;;22.80;16.02;;;22.40;73.80;;;;;;5050135;28;20044;-69
2023/05/06 12:05:47;;;;;;;20.65;14.73;;;22.30;57.50;;;;;;5050053;28;20380;-69
2023/05/06 12:08:15;;;;;;;20.45;13.85;;;22.40;2.50;;;;;;5053634;28;20041;-69
2023/05/06 12:10:41;;;;;;;20.77;12.45;;;22.40;1.00;;;;;;5046032;28;20070;-69
2023/05/06 12:13:08;;;;;;;19.58;10.65;;;22.30;1.00;;;;;;5048262;28;20048;-69
2023/05/06 12:15:34;;;;;;;17.80;11.10;;;22.20;1.00;;;;;;5050315;28;20051;-69
2023/05/06 12:18:00;;;;;;;22.23;12.57;;;22.20;1.00;;;;;;5052349;28;20040;-69
2023/05/06 12:20:27;;;;;;;18.83;11.18;;;22.00;1.00;;;;;;5053886;28;20051;-69
2023/05/06 12:23:13;;;;;;;16.63;10.05;;;21.80;1.00;;;;;;5063574;28;20040;-69
2023/05/06 12:25:39;;;;;;;20.70;9.60;;;21.70;1.00;;;;;;5056387;28;20429;-69
2023/05/06 12:28:21;;;;;;;15.95;7.65;;;21.70;99.90;;;;;;5053212;28;20590;-69